📊 Raw Sensor Data
Showing records 37876 to 37900 of 84,920 total
| ID | Distance (ft) | Battery V | Battery A | Int Temp (°F) | Int Humid (%) | Ext Temp (°F) | Solar V | RSSI | SNR | Time Stamp |
|---|---|---|---|---|---|---|---|---|---|---|
| 47057 | 15.2 | 3.81 | 12 | 79 | 48 | 73 | 4.50 | -66 | 8 | 07/22/2025 07:45 PM |
| 47056 | 15.3 | 3.95 | 0 | 81 | 46 | 75 | 5.10 | -66 | 7 | 07/22/2025 07:30 PM |
| 47055 | 15.3 | 3.83 | 0 | 81 | 45 | 77 | 5.10 | -68 | 8 | 07/22/2025 07:15 PM |
| 47054 | 15.3 | 3.99 | 0 | 79 | 45 | 75 | 5.10 | -66 | 6 | 07/22/2025 07:00 PM |
| 47053 | 15.2 | 3.83 | 0 | 79 | 45 | 78 | 5.10 | -66 | 8 | 07/22/2025 06:45 PM |
| 47052 | 15.2 | 3.83 | 0 | 77 | 47 | 74 | 5.10 | -65 | 8 | 07/22/2025 06:30 PM |
| 47051 | 15.2 | 3.83 | 0 | 78 | 47 | 75 | 5.10 | -68 | 8 | 07/22/2025 06:15 PM |
| 47050 | 15.2 | 3.83 | 0 | 78 | 49 | 74 | 5.10 | -69 | 8 | 07/22/2025 06:00 PM |
| 47049 | 15.3 | 3.84 | 0 | 79 | 50 | 74 | 5.10 | -69 | 7 | 07/22/2025 05:45 PM |
| 47048 | 15.3 | 3.84 | 0 | 83 | 49 | 77 | 5.10 | -69 | 8 | 07/22/2025 05:30 PM |
| 47047 | 15.1 | 3.84 | 0 | 86 | 47 | 80 | 5.10 | -69 | 7 | 07/22/2025 05:15 PM |
| 47046 | 15.3 | 4.05 | 0 | 86 | 47 | 79 | 5.10 | -69 | 7 | 07/22/2025 05:00 PM |
| 47045 | 15.4 | 3.84 | 0 | 90 | 44 | 81 | 5.10 | -70 | 7 | 07/22/2025 04:45 PM |
| 47044 | 15.3 | 3.84 | 0 | 89 | 44 | 80 | 5.10 | -69 | 7 | 07/22/2025 04:30 PM |
| 47043 | 15.3 | 3.84 | 0 | 88 | 44 | 81 | 5.10 | -69 | 8 | 07/22/2025 04:15 PM |
| 47042 | 15.3 | 3.84 | 0 | 87 | 45 | 80 | 5.10 | -68 | 8 | 07/22/2025 04:00 PM |
| 47041 | 15.3 | 3.84 | 0 | 89 | 44 | 81 | 5.10 | -71 | 8 | 07/22/2025 03:45 PM |
| 47040 | 15.3 | 3.93 | 0 | 89 | 43 | 79 | 5.10 | -69 | 8 | 07/22/2025 03:30 PM |
| 47039 | 15.3 | 3.85 | 0 | 89 | 42 | 82 | 5.10 | -69 | 7 | 07/22/2025 03:15 PM |
| 47038 | 15.3 | 3.84 | 0 | 87 | 43 | 81 | 5.10 | -70 | 8 | 07/22/2025 03:00 PM |
| 47037 | 15.3 | 3.84 | 0 | 87 | 42 | 79 | 5.10 | -68 | 7 | 07/22/2025 02:45 PM |
| 47036 | 15.3 | 3.84 | 0 | 86 | 42 | 79 | 5.10 | -70 | 8 | 07/22/2025 02:30 PM |
| 47035 | 15.3 | 4.08 | 0 | 86 | 42 | 78 | 5.10 | -69 | 8 | 07/22/2025 02:15 PM |
| 47034 | 15.3 | 3.84 | 0 | 87 | 41 | 78 | 5.10 | -70 | 8 | 07/22/2025 02:00 PM |
| 47033 | 15.3 | 3.84 | 0 | 85 | 41 | 78 | 5.10 | -70 | 8 | 07/22/2025 01:45 PM |